createdAt,value
2023-12-31T00:00:45.650Z,3.42
2023-12-31T00:03:12.984Z,3.42
2023-12-31T00:05:40.306Z,5.93
2023-12-31T00:08:07.820Z,6.88
2023-12-31T00:10:35.017Z,6.65
2023-12-31T00:13:02.445Z,4.45
2023-12-31T00:15:29.778Z,3.25
2023-12-31T00:17:57.131Z,3.17
2023-12-31T00:20:24.740Z,3.38
2023-12-31T00:22:52.351Z,2.40
2023-12-31T00:25:19.599Z,2.17
2023-12-31T00:27:46.874Z,2.10
2023-12-31T00:30:14.534Z,2.38
2023-12-31T00:32:41.764Z,3.25
2023-12-31T00:35:09.246Z,3.67
2023-12-31T00:37:36.566Z,3.97
2023-12-31T00:40:04.094Z,3.65
2023-12-31T00:42:31.509Z,3.60
2023-12-31T00:44:59.143Z,2.83
2023-12-31T00:47:26.340Z,3.63
2023-12-31T00:49:53.676Z,2.80
2023-12-31T00:52:20.953Z,2.47
2023-12-31T00:54:51.999Z,2.78
2023-12-31T00:57:19.429Z,2.85
2023-12-31T00:59:46.715Z,2.47
2023-12-31T01:02:14.107Z,2.75
2023-12-31T01:04:41.399Z,2.20
2023-12-31T01:07:08.666Z,2.60
2023-12-31T01:09:35.897Z,2.20
2023-12-31T01:12:03.149Z,1.92
2023-12-31T01:14:30.333Z,2.20
2023-12-31T01:16:57.613Z,2.35
2023-12-31T01:19:24.831Z,2.33
2023-12-31T01:21:52.085Z,2.22
2023-12-31T01:24:19.445Z,2.92
2023-12-31T01:26:46.605Z,2.20
2023-12-31T01:29:14.296Z,2.00
2023-12-31T01:31:41.676Z,2.22
2023-12-31T01:34:09.128Z,1.83
2023-12-31T01:36:36.511Z,2.33
2023-12-31T01:39:04.094Z,2.28
2023-12-31T01:41:31.318Z,2.60
2023-12-31T01:44:05.864Z,2.20
2023-12-31T01:46:34.008Z,2.40
2023-12-31T01:49:02.452Z,2.47
2023-12-31T01:51:32.090Z,2.70
2023-12-31T01:54:02.636Z,2.45
2023-12-31T01:56:30.954Z,2.10
2023-12-31T01:58:59.776Z,2.38
2023-12-31T02:01:28.631Z,2.67
2023-12-31T02:03:55.841Z,2.47
2023-12-31T02:06:23.214Z,2.28
2023-12-31T02:08:50.474Z,2.65
2023-12-31T02:11:18.135Z,2.08
2023-12-31T02:13:45.724Z,2.00
2023-12-31T02:16:17.202Z,2.15
2023-12-31T02:18:44.878Z,2.25
2023-12-31T02:21:14.510Z,1.98
2023-12-31T02:23:42.421Z,2.30
2023-12-31T02:26:10.510Z,1.63
2023-12-31T02:28:38.511Z,1.55
2023-12-31T02:31:06.622Z,1.80
2023-12-31T02:33:34.631Z,2.03
2023-12-31T02:36:01.984Z,1.70
2023-12-31T02:38:29.787Z,1.60
2023-12-31T02:40:57.330Z,2.03
2023-12-31T02:43:24.624Z,2.40
2023-12-31T02:45:51.836Z,1.75
2023-12-31T02:48:19.409Z,1.95
2023-12-31T02:50:46.608Z,1.60
2023-12-31T02:53:13.850Z,1.77
2023-12-31T02:55:41.178Z,1.85
2023-12-31T02:58:08.884Z,2.05
2023-12-31T03:00:36.279Z,2.17
2023-12-31T03:03:04.114Z,2.10
2023-12-31T03:05:31.631Z,1.60
2023-12-31T03:07:58.949Z,1.77
2023-12-31T03:10:26.204Z,1.60
2023-12-31T03:12:53.417Z,1.90
2023-12-31T03:15:21.643Z,1.85
2023-12-31T03:17:49.163Z,1.88
2023-12-31T03:20:16.578Z,1.75
2023-12-31T03:22:48.077Z,1.88
2023-12-31T03:25:15.538Z,2.00
2023-12-31T03:27:42.838Z,1.75
2023-12-31T03:30:10.237Z,1.58
2023-12-31T03:32:37.504Z,1.95
2023-12-31T03:35:05.432Z,1.50
2023-12-31T03:37:32.701Z,2.15
2023-12-31T03:40:00.433Z,1.95
2023-12-31T03:42:27.651Z,1.50
2023-12-31T03:44:54.851Z,1.40
2023-12-31T03:47:22.648Z,1.45
2023-12-31T03:49:49.919Z,1.55
2023-12-31T03:52:17.212Z,1.83
2023-12-31T03:54:44.460Z,1.85
2023-12-31T03:57:11.656Z,1.60
2023-12-31T03:59:38.933Z,1.75
2023-12-31T04:02:06.235Z,1.60
2023-12-31T04:04:33.470Z,1.95
2023-12-31T04:07:00.784Z,1.75
2023-12-31T04:09:28.043Z,1.88
2023-12-31T04:11:55.188Z,1.77
2023-12-31T04:14:22.411Z,1.88
2023-12-31T04:16:49.688Z,1.23
2023-12-31T04:19:17.068Z,1.30
2023-12-31T04:21:44.302Z,1.52
2023-12-31T04:24:11.629Z,1.40
2023-12-31T04:26:39.023Z,1.50
2023-12-31T04:29:06.711Z,1.75
2023-12-31T04:31:33.916Z,1.52
2023-12-31T04:34:01.328Z,2.10
2023-12-31T04:36:28.782Z,1.85
2023-12-31T04:38:56.171Z,1.88
2023-12-31T04:41:23.518Z,1.63
2023-12-31T04:43:50.924Z,2.03
2023-12-31T04:46:21.633Z,2.00
2023-12-31T04:48:48.858Z,1.60
2023-12-31T04:51:26.714Z,1.45
2023-12-31T04:53:54.879Z,1.70
2023-12-31T04:56:27.452Z,1.60
2023-12-31T04:58:56.547Z,1.50
2023-12-31T05:01:24.241Z,1.40
2023-12-31T05:03:51.908Z,1.88
2023-12-31T05:06:19.389Z,1.30
2023-12-31T05:08:47.703Z,1.50
2023-12-31T05:11:15.896Z,1.20
2023-12-31T05:13:44.409Z,1.25
2023-12-31T05:16:15.750Z,1.60
2023-12-31T05:18:52.625Z,1.33
2023-12-31T05:21:20.205Z,1.30
2023-12-31T05:23:47.471Z,1.50
2023-12-31T05:26:14.785Z,1.40
2023-12-31T05:28:42.403Z,1.52
2023-12-31T05:31:11.981Z,1.40
2023-12-31T05:33:39.305Z,1.20
2023-12-31T05:36:06.695Z,1.25
2023-12-31T05:38:34.372Z,1.20
2023-12-31T05:41:01.877Z,1.35
2023-12-31T05:43:29.061Z,1.10
2023-12-31T05:45:56.250Z,1.40
2023-12-31T05:48:23.923Z,1.15
2023-12-31T05:50:52.172Z,1.17
2023-12-31T05:53:19.355Z,1.10
2023-12-31T05:55:48.219Z,1.02
2023-12-31T05:58:15.535Z,1.50
2023-12-31T06:00:42.839Z,1.40
2023-12-31T06:03:10.551Z,1.73
2023-12-31T06:05:38.408Z,1.63
2023-12-31T06:08:06.306Z,1.58
2023-12-31T06:10:33.521Z,1.40
2023-12-31T06:13:00.749Z,1.85
2023-12-31T06:15:28.014Z,1.42
2023-12-31T06:17:55.451Z,2.05
2023-12-31T06:20:22.824Z,1.77
2023-12-31T06:22:50.027Z,2.45
2023-12-31T06:25:17.264Z,1.83
2023-12-31T06:27:44.702Z,1.90
2023-12-31T06:30:12.370Z,2.05
2023-12-31T06:32:39.957Z,1.65
2023-12-31T06:35:09.065Z,2.33
2023-12-31T06:37:36.294Z,1.75
2023-12-31T06:40:04.711Z,1.95
2023-12-31T06:42:31.954Z,1.60
2023-12-31T06:44:59.323Z,1.63
2023-12-31T06:47:26.528Z,2.00
2023-12-31T06:49:54.414Z,1.95
2023-12-31T06:52:21.715Z,1.80
2023-12-31T06:54:49.037Z,2.00
2023-12-31T06:57:16.261Z,1.88
2023-12-31T06:59:43.554Z,2.00
2023-12-31T07:02:10.832Z,1.80
2023-12-31T07:04:38.090Z,1.80
2023-12-31T07:07:05.503Z,1.92
2023-12-31T07:09:34.252Z,1.90
2023-12-31T07:12:01.563Z,2.25
2023-12-31T07:14:28.834Z,1.80
2023-12-31T07:16:56.922Z,1.80
2023-12-31T07:19:24.191Z,1.63
2023-12-31T07:21:51.397Z,1.88
2023-12-31T07:24:18.710Z,2.05
2023-12-31T07:26:46.054Z,2.10
2023-12-31T07:29:13.475Z,2.30
2023-12-31T07:31:41.020Z,2.15
2023-12-31T07:34:08.720Z,2.28
2023-12-31T07:36:36.169Z,1.95
2023-12-31T07:39:05.905Z,2.63
2023-12-31T07:41:33.178Z,2.25
2023-12-31T07:44:01.841Z,1.92
2023-12-31T07:46:30.705Z,2.00
2023-12-31T07:48:58.337Z,2.28
2023-12-31T07:51:25.681Z,1.73
2023-12-31T07:53:53.786Z,2.30
2023-12-31T07:56:21.157Z,1.90
2023-12-31T07:58:48.448Z,2.05
2023-12-31T08:01:16.357Z,2.03
2023-12-31T08:03:43.675Z,2.13
2023-12-31T08:06:11.464Z,1.85
2023-12-31T08:08:39.019Z,1.80
2023-12-31T08:11:06.363Z,1.73
2023-12-31T08:13:34.595Z,1.80
2023-12-31T08:16:02.291Z,1.70
2023-12-31T08:18:29.780Z,1.75
2023-12-31T08:20:57.025Z,2.00
2023-12-31T08:23:24.238Z,1.92
2023-12-31T08:25:51.522Z,1.80
2023-12-31T08:28:18.797Z,2.20
2023-12-31T08:30:46.090Z,1.77
2023-12-31T08:33:13.405Z,1.58
2023-12-31T08:35:42.108Z,1.50
2023-12-31T08:38:10.212Z,1.85
2023-12-31T08:40:37.604Z,2.03
2023-12-31T08:43:05.637Z,1.90
2023-12-31T08:45:35.904Z,1.80
2023-12-31T08:48:03.462Z,2.10
2023-12-31T08:50:30.721Z,1.88
2023-12-31T08:52:57.979Z,1.70
2023-12-31T08:55:25.389Z,1.70
2023-12-31T08:57:52.771Z,1.67
2023-12-31T09:00:20.192Z,1.67
2023-12-31T09:02:48.217Z,2.30
2023-12-31T09:05:15.678Z,2.72
2023-12-31T09:07:43.393Z,2.33
2023-12-31T09:10:11.105Z,2.20
2023-12-31T09:12:38.813Z,2.20
2023-12-31T09:15:07.827Z,2.67
2023-12-31T09:17:37.303Z,1.75
2023-12-31T09:20:07.587Z,1.88
2023-12-31T09:22:35.251Z,1.67
2023-12-31T09:25:03.304Z,2.40
2023-12-31T09:27:31.179Z,1.63
2023-12-31T09:29:58.430Z,2.42
2023-12-31T09:32:25.737Z,1.90
2023-12-31T09:34:53.250Z,1.98
2023-12-31T09:37:21.234Z,1.77
2023-12-31T09:39:49.344Z,1.98
2023-12-31T09:42:33.850Z,1.80
2023-12-31T09:45:04.996Z,1.98
2023-12-31T09:47:34.958Z,1.95
2023-12-31T09:50:04.096Z,1.58
2023-12-31T09:52:34.538Z,2.05
2023-12-31T09:55:03.097Z,2.00
2023-12-31T09:57:36.282Z,2.28
2023-12-31T10:00:07.100Z,2.00
2023-12-31T10:02:34.523Z,2.05
2023-12-31T10:05:02.443Z,2.15
2023-12-31T10:07:30.051Z,2.30
2023-12-31T10:09:59.420Z,2.03
2023-12-31T10:12:28.682Z,2.40
2023-12-31T10:14:56.335Z,2.08
2023-12-31T10:17:23.845Z,1.90
2023-12-31T10:19:51.030Z,1.77
2023-12-31T10:22:18.378Z,2.50
2023-12-31T10:24:45.720Z,1.92
2023-12-31T10:27:13.565Z,2.50
2023-12-31T10:29:40.987Z,1.88
2023-12-31T10:32:08.451Z,2.17
2023-12-31T10:34:35.840Z,2.10
2023-12-31T10:37:07.873Z,1.98
2023-12-31T10:39:40.707Z,3.00
2023-12-31T10:42:09.790Z,2.17
2023-12-31T10:44:38.668Z,1.85
2023-12-31T10:47:11.751Z,3.13
2023-12-31T10:49:45.415Z,2.15
2023-12-31T10:52:16.680Z,2.03
2023-12-31T10:54:48.476Z,2.17
2023-12-31T10:57:20.874Z,2.17
2023-12-31T10:59:49.457Z,1.77
2023-12-31T11:02:18.232Z,2.08
2023-12-31T11:04:50.433Z,1.70
2023-12-31T11:07:22.006Z,2.05
2023-12-31T11:09:53.064Z,1.70
2023-12-31T11:12:21.316Z,1.95
2023-12-31T11:15:17.227Z,2.55
2023-12-31T11:18:08.613Z,3.30
2023-12-31T11:20:51.778Z,2.92
2023-12-31T11:23:37.290Z,2.80
2023-12-31T11:26:07.568Z,2.55
2023-12-31T11:28:36.840Z,2.75
2023-12-31T11:31:10.907Z,2.75
2023-12-31T11:33:41.106Z,2.83
2023-12-31T11:36:14.706Z,2.40
2023-12-31T11:39:00.357Z,2.95
2023-12-31T11:41:33.047Z,4.25
2023-12-31T11:44:00.730Z,4.72
2023-12-31T11:46:44.454Z,5.45
2023-12-31T11:49:14.306Z,4.45
2023-12-31T11:51:53.189Z,4.10
2023-12-31T11:54:36.856Z,3.20
2023-12-31T11:57:05.561Z,2.88
2023-12-31T11:59:36.846Z,3.03
2023-12-31T12:02:07.519Z,3.83
2023-12-31T12:04:35.509Z,3.42
2023-12-31T12:07:03.162Z,5.03
2023-12-31T12:09:32.718Z,6.50
2023-12-31T12:12:04.488Z,5.45
2023-12-31T12:14:32.312Z,4.63
2023-12-31T12:17:01.292Z,4.07
2023-12-31T12:19:28.724Z,3.60
2023-12-31T12:21:56.379Z,3.45
2023-12-31T12:24:25.303Z,3.60
2023-12-31T12:26:53.622Z,4.30
2023-12-31T12:29:21.827Z,4.93
2023-12-31T12:31:51.653Z,3.95
2023-12-31T12:34:22.249Z,3.60
2023-12-31T12:36:50.475Z,5.47
2023-12-31T12:39:19.563Z,4.70
2023-12-31T12:41:50.875Z,4.78
2023-12-31T12:44:20.004Z,4.22
2023-12-31T12:46:50.500Z,3.75
2023-12-31T12:49:19.547Z,4.10
2023-12-31T12:51:47.991Z,3.28
2023-12-31T12:54:15.934Z,3.00
2023-12-31T12:56:45.341Z,2.47
2023-12-31T12:59:12.827Z,3.00
2023-12-31T13:01:40.347Z,3.78
2023-12-31T13:04:14.160Z,3.03
2023-12-31T13:09:09.764Z,2.78
2023-12-31T13:11:37.322Z,2.53
2023-12-31T13:14:04.990Z,2.50
2023-12-31T13:16:43.134Z,2.90
2023-12-31T13:19:15.407Z,3.40
2023-12-31T13:21:43.133Z,3.15
2023-12-31T13:24:10.435Z,3.45
2023-12-31T13:26:37.727Z,3.20
2023-12-31T13:29:05.649Z,3.33
2023-12-31T13:31:33.226Z,3.92
2023-12-31T13:34:01.282Z,3.50
2023-12-31T13:36:29.035Z,4.03
2023-12-31T13:38:56.257Z,3.40
2023-12-31T13:41:25.489Z,3.55
2023-12-31T13:43:52.922Z,2.90
2023-12-31T13:46:20.349Z,3.28
2023-12-31T13:48:47.766Z,2.50
2023-12-31T13:51:15.429Z,2.60
2023-12-31T13:53:43.046Z,3.40
2023-12-31T13:56:10.299Z,3.17
2023-12-31T13:58:37.543Z,2.53
2023-12-31T14:01:05.064Z,2.10
2023-12-31T14:03:32.447Z,2.28
2023-12-31T14:05:59.753Z,2.85
2023-12-31T14:08:27.043Z,2.40
2023-12-31T14:10:54.576Z,2.10
2023-12-31T14:13:22.693Z,2.05
2023-12-31T14:15:50.011Z,2.22
2023-12-31T14:18:17.359Z,2.10
2023-12-31T14:20:44.729Z,2.70
2023-12-31T14:23:12.422Z,2.22
2023-12-31T14:25:39.940Z,2.50
2023-12-31T14:28:07.515Z,2.33
2023-12-31T14:30:34.950Z,2.28
2023-12-31T14:33:02.412Z,3.03
2023-12-31T14:35:29.961Z,2.05
2023-12-31T14:37:57.273Z,3.03
2023-12-31T14:40:24.546Z,2.00
2023-12-31T14:42:52.223Z,2.88
2023-12-31T14:45:19.396Z,2.20
2023-12-31T14:47:46.871Z,2.45
2023-12-31T14:50:14.319Z,2.08
2023-12-31T14:52:41.896Z,2.00
2023-12-31T14:55:09.401Z,3.58
2023-12-31T14:57:36.627Z,2.88
2023-12-31T15:00:06.328Z,2.50
2023-12-31T15:02:33.809Z,2.25
2023-12-31T15:05:07.263Z,2.20
2023-12-31T15:07:42.512Z,2.28
2023-12-31T15:10:09.971Z,2.42
2023-12-31T15:12:37.609Z,3.30
2023-12-31T15:15:05.973Z,2.33
2023-12-31T15:17:33.823Z,3.05
2023-12-31T15:20:01.211Z,2.85
2023-12-31T15:22:30.384Z,3.35
2023-12-31T15:24:57.861Z,2.72
2023-12-31T15:27:25.459Z,2.75
2023-12-31T15:29:52.790Z,3.55
2023-12-31T15:32:19.978Z,2.88
2023-12-31T15:34:47.369Z,2.80
2023-12-31T15:37:14.580Z,2.30
2023-12-31T15:39:43.173Z,1.98
2023-12-31T15:42:10.716Z,2.35
2023-12-31T15:44:37.966Z,2.30
2023-12-31T15:47:05.504Z,2.65
2023-12-31T15:49:33.470Z,3.40
2023-12-31T15:52:00.684Z,3.50
2023-12-31T15:54:28.305Z,2.80
2023-12-31T15:56:55.621Z,3.67
2023-12-31T15:59:22.924Z,2.95
2023-12-31T16:01:50.497Z,2.78
2023-12-31T16:04:17.697Z,2.80
2023-12-31T16:06:44.983Z,2.42
2023-12-31T16:09:12.245Z,3.38
2023-12-31T16:11:39.831Z,3.35
2023-12-31T16:14:07.090Z,2.97
2023-12-31T16:16:35.077Z,2.70
2023-12-31T16:19:03.110Z,3.45
2023-12-31T16:21:30.342Z,2.92
2023-12-31T16:23:57.590Z,3.60
2023-12-31T16:26:25.063Z,2.90
2023-12-31T16:28:52.531Z,3.35
2023-12-31T16:31:19.781Z,2.75
2023-12-31T16:33:47.140Z,3.65
2023-12-31T16:36:14.355Z,3.50
2023-12-31T16:38:42.323Z,3.83
2023-12-31T16:41:09.539Z,3.70
2023-12-31T16:43:39.228Z,3.45
2023-12-31T16:46:07.064Z,3.17
2023-12-31T16:48:34.317Z,2.80
2023-12-31T16:51:03.200Z,3.03
2023-12-31T16:53:30.440Z,3.55
2023-12-31T16:55:58.995Z,3.92
2023-12-31T16:58:26.346Z,3.00
2023-12-31T17:00:55.715Z,3.95
2023-12-31T17:03:23.335Z,3.40
2023-12-31T17:05:53.274Z,3.50
2023-12-31T17:08:20.516Z,3.17
2023-12-31T17:10:48.073Z,3.75
2023-12-31T17:13:15.375Z,3.70
2023-12-31T17:15:42.644Z,3.00
2023-12-31T17:18:10.309Z,2.30
2023-12-31T17:20:38.022Z,2.47
2023-12-31T17:23:05.376Z,2.33
2023-12-31T17:25:32.718Z,2.60
2023-12-31T17:28:00.507Z,2.30
2023-12-31T17:30:27.766Z,2.50
2023-12-31T17:32:55.313Z,2.15
2023-12-31T17:35:22.624Z,2.75
2023-12-31T17:37:50.215Z,2.30
2023-12-31T17:40:17.546Z,2.80
2023-12-31T17:42:45.062Z,2.83
2023-12-31T17:45:12.361Z,2.67
2023-12-31T17:47:39.614Z,3.47
2023-12-31T17:50:07.873Z,3.50
2023-12-31T17:52:35.175Z,3.65
2023-12-31T17:55:02.885Z,3.72
2023-12-31T17:57:30.101Z,4.63
2023-12-31T17:59:57.457Z,3.30
2023-12-31T18:02:25.661Z,3.67
2023-12-31T18:04:53.097Z,4.38
2023-12-31T18:07:20.495Z,3.83
2023-12-31T18:09:47.969Z,4.63
2023-12-31T18:12:15.203Z,5.18
2023-12-31T18:14:42.642Z,3.50
2023-12-31T18:17:09.923Z,3.58
2023-12-31T18:19:37.359Z,4.40
2023-12-31T18:22:05.607Z,3.85
2023-12-31T18:24:33.583Z,3.80
2023-12-31T18:27:01.040Z,3.75
2023-12-31T18:29:28.340Z,3.88
2023-12-31T18:31:55.689Z,2.65
2023-12-31T18:34:22.972Z,2.50
2023-12-31T18:36:53.007Z,2.67
2023-12-31T18:39:23.695Z,2.95
2023-12-31T18:41:50.898Z,3.25
2023-12-31T18:44:18.198Z,3.72
2023-12-31T18:46:45.975Z,3.15
2023-12-31T18:49:13.379Z,2.85
2023-12-31T18:51:42.565Z,2.88
2023-12-31T18:54:12.173Z,2.47
2023-12-31T18:56:39.449Z,3.00
2023-12-31T18:59:08.738Z,3.22
2023-12-31T19:01:36.277Z,3.03
2023-12-31T19:04:03.917Z,3.90
2023-12-31T19:06:31.264Z,3.35
2023-12-31T19:08:58.477Z,4.50
2023-12-31T19:11:26.177Z,5.07
2023-12-31T19:13:53.515Z,4.65
2023-12-31T19:16:20.884Z,4.93
2023-12-31T19:18:48.151Z,5.05
2023-12-31T19:21:20.224Z,4.65
2023-12-31T19:23:47.405Z,5.28
2023-12-31T19:26:14.577Z,6.13
2023-12-31T19:28:42.077Z,7.47
2023-12-31T19:31:09.322Z,8.77
2023-12-31T19:33:36.669Z,9.50
2023-12-31T19:36:04.518Z,9.32
2023-12-31T19:38:32.296Z,7.03
2023-12-31T19:41:00.170Z,7.38
2023-12-31T19:43:41.295Z,5.00
2023-12-31T19:46:16.034Z,4.90
2023-12-31T19:48:43.460Z,5.57
2023-12-31T19:51:10.922Z,5.28
2023-12-31T19:53:38.355Z,4.55
2023-12-31T19:56:06.429Z,4.28
2023-12-31T19:58:35.606Z,3.88
2023-12-31T20:01:03.098Z,3.95
2023-12-31T20:03:30.444Z,3.20
2023-12-31T20:05:57.958Z,3.65
2023-12-31T20:08:25.280Z,4.00
2023-12-31T20:10:52.827Z,4.05
2023-12-31T20:13:20.173Z,4.95
2023-12-31T20:15:50.274Z,4.40
2023-12-31T20:18:21.618Z,4.40
2023-12-31T20:20:48.901Z,4.55
2023-12-31T20:23:16.146Z,4.35
2023-12-31T20:25:47.535Z,4.25
2023-12-31T20:28:15.087Z,3.58
2023-12-31T20:30:42.407Z,3.33
2023-12-31T20:33:10.424Z,3.30
2023-12-31T20:35:37.981Z,3.25
2023-12-31T20:38:05.566Z,4.90
2023-12-31T20:40:33.174Z,4.78
2023-12-31T20:43:00.498Z,4.88
2023-12-31T20:45:28.927Z,5.00
2023-12-31T20:47:56.491Z,4.25
2023-12-31T20:50:27.405Z,3.88
2023-12-31T20:52:54.830Z,3.70
2023-12-31T20:55:22.290Z,3.45
2023-12-31T20:57:49.561Z,3.40
2023-12-31T21:00:17.282Z,3.25
2023-12-31T21:02:44.566Z,4.35
2023-12-31T21:05:11.857Z,5.65
2023-12-31T21:07:39.970Z,6.35
2023-12-31T21:10:07.776Z,8.02
2023-12-31T21:12:35.015Z,8.23
2023-12-31T21:15:02.348Z,8.80
2023-12-31T21:17:29.602Z,9.13
2023-12-31T21:19:56.941Z,9.60
2023-12-31T21:22:24.291Z,9.15
2023-12-31T21:24:51.513Z,8.30
2023-12-31T21:27:18.812Z,9.43
2023-12-31T21:29:46.070Z,11.13
2023-12-31T21:32:13.362Z,11.55
2023-12-31T21:34:40.779Z,11.63
2023-12-31T21:37:08.035Z,9.80
2023-12-31T21:39:35.190Z,9.65
2023-12-31T21:42:02.478Z,18.58
2023-12-31T21:44:31.794Z,18.30
2023-12-31T21:46:59.175Z,10.45
2023-12-31T21:49:26.666Z,9.18
2023-12-31T21:51:54.210Z,8.45
2023-12-31T21:54:21.523Z,7.13
2023-12-31T21:57:00.610Z,6.72
2023-12-31T21:59:31.059Z,6.32
2023-12-31T22:01:58.290Z,5.80
2023-12-31T22:04:25.637Z,5.40
2023-12-31T22:06:53.148Z,5.93
2023-12-31T22:09:20.334Z,5.40
2023-12-31T22:11:47.532Z,6.18
2023-12-31T22:14:14.887Z,5.57
2023-12-31T22:16:43.326Z,5.50
2023-12-31T22:19:10.819Z,4.68
2023-12-31T22:21:40.994Z,5.43
2023-12-31T22:24:08.676Z,4.88
2023-12-31T22:26:35.861Z,4.65
2023-12-31T22:29:03.456Z,4.78
2023-12-31T22:31:31.395Z,4.32
2023-12-31T22:33:58.683Z,4.30
2023-12-31T22:36:26.055Z,3.65
2023-12-31T22:38:53.264Z,4.13
2023-12-31T22:41:20.475Z,3.78
2023-12-31T22:43:47.974Z,3.75
2023-12-31T22:46:15.200Z,3.80
2023-12-31T22:48:42.496Z,3.35
2023-12-31T22:51:12.168Z,3.60
2023-12-31T22:53:39.357Z,3.70
2023-12-31T22:56:06.900Z,3.88
2023-12-31T22:58:34.187Z,4.13
2023-12-31T23:01:01.438Z,4.40
2023-12-31T23:03:28.764Z,4.10
2023-12-31T23:05:57.988Z,4.13
2023-12-31T23:08:25.380Z,3.17
2023-12-31T23:10:52.634Z,3.72
2023-12-31T23:13:19.808Z,3.83
2023-12-31T23:15:48.656Z,3.28
2023-12-31T23:18:16.872Z,3.38
2023-12-31T23:20:44.120Z,3.30
2023-12-31T23:23:11.470Z,3.35
2023-12-31T23:25:38.758Z,3.17
2023-12-31T23:28:06.430Z,2.83
2023-12-31T23:30:33.892Z,3.40
2023-12-31T23:33:01.296Z,3.45
2023-12-31T23:35:28.614Z,2.80
2023-12-31T23:37:55.831Z,2.83
2023-12-31T23:40:23.139Z,2.90
2023-12-31T23:42:50.537Z,3.75
2023-12-31T23:45:18.220Z,2.80
2023-12-31T23:47:45.561Z,3.03
2023-12-31T23:50:13.380Z,3.40
2023-12-31T23:52:40.826Z,2.65
2023-12-31T23:55:08.817Z,2.60
2023-12-31T23:57:36.094Z,2.50
